createdAt,value
2019-03-06T00:00:20.509Z,3.50
2019-03-06T00:03:01.584Z,3.50
2019-03-06T00:05:42.352Z,3.47
2019-03-06T00:08:22.676Z,4.03
2019-03-06T00:11:03.237Z,3.97
2019-03-06T00:13:44.044Z,3.90
2019-03-06T00:16:24.601Z,4.20
2019-03-06T00:19:05.050Z,4.27
2019-03-06T00:21:45.657Z,3.90
2019-03-06T00:24:26.689Z,3.57
2019-03-06T00:27:07.291Z,4.47
2019-03-06T00:29:48.005Z,4.40
2019-03-06T00:32:28.608Z,4.20
2019-03-06T00:35:28.633Z,4.93
2019-03-06T00:38:09.465Z,5.73
2019-03-06T00:40:55.081Z,5.87
2019-03-06T00:43:35.872Z,6.37
2019-03-06T00:46:16.490Z,5.77
2019-03-06T00:48:57.257Z,6.13
2019-03-06T00:51:37.814Z,6.57
2019-03-06T00:54:18.592Z,5.83
2019-03-06T00:56:59.328Z,5.87
2019-03-06T00:59:39.975Z,5.63
2019-03-06T01:02:20.705Z,6.00
2019-03-06T01:05:01.621Z,6.23
2019-03-06T01:07:42.483Z,6.27
2019-03-06T01:10:22.852Z,6.17
2019-03-06T01:13:03.181Z,5.80
2019-03-06T01:15:43.629Z,6.30
2019-03-06T01:18:24.339Z,6.17
2019-03-06T01:21:05.144Z,6.07
2019-03-06T01:23:45.689Z,6.33
2019-03-06T01:26:26.263Z,6.67
2019-03-06T01:29:06.802Z,6.13
2019-03-06T01:31:47.733Z,7.30
2019-03-06T01:34:47.469Z,6.57
2019-03-06T01:37:32.484Z,7.37
2019-03-06T01:40:15.128Z,7.03
2019-03-06T01:42:59.684Z,7.27
2019-03-06T01:45:40.064Z,6.67
2019-03-06T01:48:20.663Z,6.97
2019-03-06T01:51:01.763Z,6.73
2019-03-06T01:53:42.436Z,7.00
2019-03-06T01:56:23.279Z,7.00
2019-03-06T01:59:03.785Z,6.73
2019-03-06T02:01:44.604Z,7.00
2019-03-06T02:04:25.035Z,7.50
2019-03-06T02:07:05.780Z,6.63
2019-03-06T02:09:46.418Z,7.00
2019-03-06T02:12:26.899Z,7.00
2019-03-06T02:15:07.531Z,6.63
2019-03-06T02:17:36.111Z,6.90
2019-03-06T02:20:23.872Z,7.10
2019-03-06T02:23:11.616Z,7.60
2019-03-06T02:25:59.361Z,6.77
2019-03-06T02:28:47.188Z,6.67
2019-03-06T02:31:34.947Z,6.83
2019-03-06T02:34:22.802Z,6.97
2019-03-06T02:37:10.545Z,7.60
2019-03-06T02:39:58.291Z,7.27
2019-03-06T02:42:47.756Z,7.00
2019-03-06T02:45:35.515Z,7.77
2019-03-06T02:48:15.715Z,7.53
2019-03-06T02:50:56.563Z,7.47
2019-03-06T02:53:37.177Z,7.77
2019-03-06T02:56:17.943Z,7.80
2019-03-06T02:59:03.329Z,8.27
2019-03-06T03:01:45.524Z,8.77
2019-03-06T03:07:20.976Z,8.47
2019-03-06T03:10:01.661Z,9.50
2019-03-06T03:12:42.170Z,10.23
2019-03-06T03:15:22.956Z,9.73
2019-03-06T03:18:03.599Z,10.17
2019-03-06T03:20:44.671Z,9.63
2019-03-06T03:23:25.713Z,10.30
2019-03-06T03:26:06.654Z,10.33
2019-03-06T03:28:47.292Z,11.00
2019-03-06T03:31:27.732Z,11.07
2019-03-06T03:34:08.274Z,10.10
2019-03-06T03:39:31.598Z,11.23
2019-03-06T03:42:12.263Z,11.17
2019-03-06T03:44:52.881Z,10.83
2019-03-06T03:47:33.582Z,10.93
2019-03-06T03:50:14.245Z,10.73
2019-03-06T03:52:54.936Z,11.23
2019-03-06T03:55:35.524Z,10.43
2019-03-06T03:58:16.582Z,10.53
2019-03-06T04:00:57.406Z,10.70
2019-03-06T04:03:38.093Z,10.63
2019-03-06T04:06:18.756Z,10.77
2019-03-06T04:08:59.351Z,11.40
2019-03-06T04:11:39.866Z,11.83
2019-03-06T04:14:20.903Z,11.10
2019-03-06T04:17:01.704Z,10.60
2019-03-06T04:19:42.216Z,10.27
2019-03-06T04:22:22.889Z,10.43
2019-03-06T04:25:03.424Z,10.70
2019-03-06T04:27:44.270Z,10.53
2019-03-06T04:30:25.213Z,10.17
2019-03-06T04:33:06.102Z,9.23
2019-03-06T04:35:46.333Z,9.93
2019-03-06T04:38:26.919Z,9.50
2019-03-06T04:41:10.145Z,9.83
2019-03-06T04:43:50.780Z,9.70
2019-03-06T04:46:31.694Z,8.90
2019-03-06T04:49:12.797Z,9.10
2019-03-06T04:51:53.632Z,9.13
2019-03-06T04:54:34.188Z,8.07
2019-03-06T04:57:15.137Z,8.40
2019-03-06T04:59:55.889Z,7.70
2019-03-06T05:02:36.776Z,8.07
2019-03-06T05:05:17.303Z,8.80
2019-03-06T05:07:58.311Z,7.80
2019-03-06T05:10:39.172Z,8.37
2019-03-06T05:13:19.947Z,8.40
2019-03-06T05:16:00.673Z,7.93
2019-03-06T05:18:45.956Z,8.23
2019-03-06T05:21:26.279Z,8.50
2019-03-06T05:24:06.939Z,8.10
2019-03-06T05:26:47.557Z,8.27
2019-03-06T05:29:28.513Z,7.40
2019-03-06T05:32:09.412Z,8.37
2019-03-06T05:34:50.468Z,8.23
2019-03-06T05:37:31.689Z,8.10
2019-03-06T05:40:12.324Z,8.10
2019-03-06T05:42:52.828Z,9.20
2019-03-06T05:45:33.668Z,8.60
2019-03-06T05:48:14.476Z,8.93
2019-03-06T05:53:36.968Z,8.00
2019-03-06T05:56:17.495Z,8.83
2019-03-06T05:58:58.148Z,7.33
2019-03-06T06:01:38.548Z,8.33
2019-03-06T06:04:19.327Z,8.57
2019-03-06T06:07:00.036Z,8.63
2019-03-06T06:09:40.701Z,8.30
2019-03-06T06:12:21.170Z,8.87
2019-03-06T06:15:02.258Z,7.70
2019-03-06T06:17:43.262Z,8.60
2019-03-06T06:20:22.198Z,7.97
2019-03-06T06:26:08.232Z,7.67
2019-03-06T06:28:56.156Z,7.60
2019-03-06T06:31:43.900Z,7.70
2019-03-06T06:34:31.635Z,7.37
2019-03-06T06:37:19.389Z,7.20
2019-03-06T06:40:27.849Z,6.67
2019-03-06T06:43:15.605Z,6.87
2019-03-06T06:46:03.371Z,6.20
2019-03-06T06:48:51.130Z,6.73
2019-03-06T06:51:58.205Z,6.30
2019-03-06T06:55:05.277Z,7.00
2019-03-06T06:58:12.343Z,7.00
2019-03-06T07:03:49.758Z,6.30
2019-03-06T07:06:31.654Z,5.97
2019-03-06T07:09:12.956Z,5.83
2019-03-06T07:11:53.302Z,5.57
2019-03-06T07:15:00.330Z,5.50
2019-03-06T07:24:00.110Z,4.87
2019-03-06T07:27:07.060Z,4.30
2019-03-06T07:30:14.000Z,3.90
2019-03-06T07:36:16.257Z,3.30
2019-03-06T07:39:24.728Z,3.10
2019-03-06T07:45:28.311Z,2.90
2019-03-06T07:51:31.915Z,3.03
2019-03-06T07:54:38.601Z,2.80
2019-03-06T07:57:27.998Z,2.50
2019-03-06T08:00:15.811Z,2.90
2019-03-06T08:02:56.876Z,2.80
2019-03-06T08:05:37.638Z,2.90
2019-03-06T08:08:18.398Z,2.83
2019-03-06T08:10:59.459Z,3.10
2019-03-06T08:13:42.191Z,2.80
2019-03-06T08:16:28.519Z,2.50
2019-03-06T08:19:35.466Z,2.93
2019-03-06T08:22:03.373Z,3.10
2019-03-06T08:25:10.329Z,3.10
2019-03-06T08:27:58.077Z,3.03
2019-03-06T08:31:05.025Z,6.70
2019-03-06T08:33:52.788Z,3.90
2019-03-06T08:36:40.540Z,2.77
2019-03-06T08:39:28.297Z,2.53
2019-03-06T08:42:16.072Z,2.03
2019-03-06T08:45:24.631Z,2.40
2019-03-06T08:48:31.644Z,2.10
2019-03-06T08:54:33.443Z,2.10
2019-03-06T08:57:40.380Z,2.10
2019-03-06T09:00:47.328Z,2.17
2019-03-06T09:03:46.788Z,2.20
2019-03-06T09:06:32.475Z,2.33
2019-03-06T09:09:17.755Z,1.93
2019-03-06T09:12:03.453Z,2.27
2019-03-06T09:14:45.300Z,2.10
2019-03-06T09:17:27.628Z,1.90
2019-03-06T09:25:59.960Z,1.83
2019-03-06T09:28:41.932Z,1.70
2019-03-06T09:31:24.308Z,1.70
2019-03-06T09:34:09.377Z,1.90
2019-03-06T09:43:07.657Z,1.60
2019-03-06T09:45:55.264Z,1.60
2019-03-06T09:51:56.752Z,1.50
2019-03-06T09:57:59.064Z,1.53
2019-03-06T10:00:40.924Z,1.50
2019-03-06T10:03:41.012Z,1.60
2019-03-06T10:06:41.255Z,1.60
2019-03-06T10:09:41.560Z,1.40
2019-03-06T10:12:23.404Z,1.50
2019-03-06T10:15:09.170Z,1.40
2019-03-06T10:20:51.684Z,1.50
2019-03-06T10:23:32.365Z,1.40
2019-03-06T10:26:13.132Z,1.60
2019-03-06T10:28:53.632Z,1.60
2019-03-06T10:31:34.609Z,1.40
2019-03-06T10:34:03.087Z,1.63
2019-03-06T10:36:31.580Z,1.63
2019-03-06T10:39:19.404Z,1.67
2019-03-06T10:42:07.240Z,1.50
2019-03-06T10:44:56.735Z,1.70
2019-03-06T10:47:44.577Z,1.80
2019-03-06T10:50:32.412Z,1.70
2019-03-06T10:53:20.246Z,2.20
2019-03-06T10:56:00.657Z,2.10
2019-03-06T10:58:41.304Z,1.90
2019-03-06T11:01:21.724Z,1.80
2019-03-06T11:04:21.907Z,1.70
2019-03-06T11:07:02.254Z,1.90
2019-03-06T11:09:42.870Z,2.00
2019-03-06T11:12:11.428Z,2.10
2019-03-06T11:14:59.191Z,1.83
2019-03-06T11:20:40.917Z,2.00
2019-03-06T11:23:28.739Z,2.00
2019-03-06T11:26:16.490Z,2.10
2019-03-06T11:29:04.707Z,2.00
2019-03-06T11:31:52.649Z,2.10
2019-03-06T11:34:40.574Z,2.00
2019-03-06T11:37:28.346Z,1.90
2019-03-06T11:40:16.732Z,1.70
2019-03-06T11:43:25.497Z,2.17
2019-03-06T11:46:13.317Z,1.80
2019-03-06T11:49:01.068Z,1.90
2019-03-06T11:51:48.820Z,2.00
2019-03-06T11:54:36.572Z,1.90
2019-03-06T11:57:17.354Z,1.70
2019-03-06T11:59:57.960Z,1.70
2019-03-06T12:02:26.540Z,1.90
2019-03-06T12:05:14.369Z,1.80
2019-03-06T12:08:02.372Z,1.80
2019-03-06T12:10:50.710Z,1.90
2019-03-06T12:13:38.813Z,1.80
2019-03-06T12:16:28.369Z,1.90
2019-03-06T12:22:14.618Z,2.03
2019-03-06T12:24:43.111Z,1.90
2019-03-06T12:27:30.877Z,2.10
2019-03-06T12:30:18.895Z,2.80
2019-03-06T12:33:06.822Z,2.03
2019-03-06T12:35:54.669Z,1.97
2019-03-06T12:38:42.480Z,1.90
2019-03-06T12:41:30.232Z,2.10
2019-03-06T12:44:17.996Z,2.10
2019-03-06T12:47:05.748Z,2.00
2019-03-06T12:49:53.530Z,1.97
2019-03-06T12:52:41.294Z,2.20
2019-03-06T12:55:29.196Z,2.00
2019-03-06T12:58:09.916Z,2.20
2019-03-06T13:00:50.877Z,2.00
2019-03-06T13:03:31.848Z,1.97
2019-03-06T13:06:12.605Z,2.00
2019-03-06T13:08:53.485Z,2.37
2019-03-06T13:11:34.227Z,2.07
2019-03-06T13:14:15.003Z,1.90
2019-03-06T13:16:55.373Z,2.07
2019-03-06T13:19:36.018Z,2.10
2019-03-06T13:22:16.903Z,1.90
2019-03-06T13:24:57.583Z,1.90
2019-03-06T13:27:38.372Z,2.00
2019-03-06T13:30:28.060Z,2.00
2019-03-06T13:33:35.011Z,2.10
2019-03-06T13:36:23.012Z,2.00
2019-03-06T13:39:10.828Z,2.23
2019-03-06T13:41:58.652Z,2.00
2019-03-06T13:44:46.476Z,2.20
2019-03-06T13:47:14.884Z,1.90
2019-03-06T13:50:02.648Z,2.20
2019-03-06T13:52:50.475Z,2.17
2019-03-06T13:55:38.239Z,2.13
2019-03-06T13:58:26.064Z,1.97
2019-03-06T14:01:14.305Z,2.20
2019-03-06T14:04:03.808Z,2.17
2019-03-06T14:06:51.564Z,2.10
2019-03-06T14:09:39.388Z,2.13
2019-03-06T14:12:27.219Z,2.20
2019-03-06T14:15:15.634Z,2.30
2019-03-06T14:18:03.767Z,2.30
2019-03-06T14:20:51.587Z,2.20
2019-03-06T14:23:39.358Z,2.20
2019-03-06T14:26:20.288Z,2.10
2019-03-06T14:29:00.748Z,2.00
2019-03-06T14:31:41.343Z,2.27
2019-03-06T14:37:03.677Z,2.13
2019-03-06T14:39:51.512Z,2.30
2019-03-06T14:42:39.343Z,2.30
2019-03-06T14:45:27.236Z,2.50
2019-03-06T14:48:14.996Z,2.30
2019-03-06T14:51:02.942Z,2.00
2019-03-06T14:53:50.770Z,2.10
2019-03-06T14:56:38.537Z,2.50
2019-03-06T14:59:26.293Z,2.17
2019-03-06T15:02:14.136Z,2.10
2019-03-06T15:05:01.883Z,2.40
2019-03-06T15:07:49.644Z,2.20
2019-03-06T15:10:43.046Z,2.30
2019-03-06T15:13:26.875Z,2.20
2019-03-06T15:16:14.809Z,2.37
2019-03-06T15:19:02.565Z,2.40
2019-03-06T15:21:50.317Z,2.30
2019-03-06T15:24:31.176Z,2.70
2019-03-06T15:27:09.880Z,2.30
2019-03-06T15:32:51.050Z,2.63
2019-03-06T15:35:39.184Z,2.70
2019-03-06T15:38:26.959Z,2.37
2019-03-06T15:41:14.712Z,2.30
2019-03-06T15:44:02.482Z,2.37
2019-03-06T15:46:50.312Z,2.40
2019-03-06T15:49:38.081Z,2.30
2019-03-06T15:52:25.839Z,2.20
2019-03-06T15:55:14.151Z,2.43
2019-03-06T15:58:01.904Z,2.50
2019-03-06T16:00:51.376Z,2.50
2019-03-06T16:03:39.220Z,2.63
2019-03-06T16:06:27.037Z,2.60
2019-03-06T16:09:14.804Z,2.87
2019-03-06T16:12:02.712Z,3.00
2019-03-06T16:14:50.838Z,2.50
2019-03-06T16:17:38.751Z,2.70
2019-03-06T16:20:26.662Z,2.80
2019-03-06T16:23:14.968Z,2.80
2019-03-06T16:25:55.244Z,2.60
2019-03-06T16:28:35.898Z,3.30
2019-03-06T16:31:16.565Z,2.67
2019-03-06T16:33:57.452Z,2.80
2019-03-06T16:36:38.303Z,2.70
2019-03-06T16:39:20.213Z,2.77
2019-03-06T16:42:01.097Z,2.70
2019-03-06T16:44:41.917Z,2.93
2019-03-06T16:47:22.508Z,2.97
2019-03-06T16:50:03.090Z,2.87
2019-03-06T16:52:43.598Z,2.67
2019-03-06T16:55:24.347Z,2.90
2019-03-06T16:58:05.028Z,3.00
2019-03-06T17:00:45.724Z,3.40
2019-03-06T17:03:26.568Z,3.50
2019-03-06T17:05:55.055Z,3.33
2019-03-06T17:08:42.838Z,2.93
2019-03-06T17:11:30.699Z,3.03
2019-03-06T17:14:18.523Z,2.90
2019-03-06T17:17:06.352Z,3.60
2019-03-06T17:19:54.176Z,4.47
2019-03-06T17:22:42.018Z,3.40
2019-03-06T17:25:23.033Z,3.70
2019-03-06T17:28:04.123Z,3.57
2019-03-06T17:30:44.867Z,3.30
2019-03-06T17:33:25.801Z,3.33
2019-03-06T17:36:06.657Z,3.73
2019-03-06T17:38:47.724Z,4.80
2019-03-06T17:41:29.036Z,4.23
2019-03-06T17:44:11.169Z,3.93
2019-03-06T17:46:51.622Z,4.13
2019-03-06T17:49:32.395Z,4.80
2019-03-06T17:52:12.855Z,5.13
2019-03-06T17:54:53.632Z,4.80
2019-03-06T17:57:34.383Z,5.70
2019-03-06T18:00:17.158Z,6.37
2019-03-06T18:02:56.670Z,6.40
2019-03-06T18:05:44.492Z,5.60
2019-03-06T18:08:32.319Z,5.37
2019-03-06T18:11:00.915Z,4.87
2019-03-06T18:13:48.740Z,4.70
2019-03-06T18:16:37.209Z,6.03
2019-03-06T18:19:25.969Z,5.07
2019-03-06T18:22:13.892Z,5.60
2019-03-06T18:25:01.832Z,6.17
2019-03-06T18:27:42.889Z,5.53
2019-03-06T18:30:23.854Z,5.80
2019-03-06T18:33:04.724Z,5.50
2019-03-06T18:35:45.523Z,5.80
2019-03-06T18:38:26.204Z,6.17
2019-03-06T18:41:06.875Z,6.03
2019-03-06T18:43:47.904Z,6.47
2019-03-06T18:46:28.745Z,6.73
2019-03-06T18:49:09.443Z,7.00
2019-03-06T18:51:50.515Z,8.20
2019-03-06T18:54:31.131Z,7.27
2019-03-06T18:57:13.415Z,7.50
2019-03-06T18:59:53.816Z,6.50
2019-03-06T19:02:36.378Z,7.67
2019-03-06T19:05:17.556Z,6.47
2019-03-06T19:07:58.208Z,6.70
2019-03-06T19:10:38.659Z,6.40
2019-03-06T19:13:19.675Z,7.10
2019-03-06T19:15:48.223Z,7.43
2019-03-06T19:18:35.976Z,7.40
2019-03-06T19:21:23.825Z,7.07
2019-03-06T19:24:11.662Z,7.57
2019-03-06T19:26:54.229Z,8.07
2019-03-06T19:29:34.940Z,8.30
2019-03-06T19:32:15.901Z,7.63
2019-03-06T19:34:56.813Z,6.70
2019-03-06T19:37:37.569Z,6.90
2019-03-06T19:40:18.375Z,5.97
2019-03-06T19:42:58.969Z,6.47
2019-03-06T19:45:39.541Z,6.60
2019-03-06T19:48:20.356Z,6.10
2019-03-06T19:51:00.997Z,5.90
2019-03-06T19:53:41.679Z,6.80
2019-03-06T19:56:22.704Z,6.00
2019-03-06T19:59:03.307Z,5.93
2019-03-06T20:01:45.847Z,5.83
2019-03-06T20:04:26.119Z,5.83
2019-03-06T20:07:06.854Z,6.10
2019-03-06T20:09:47.647Z,5.83
2019-03-06T20:12:28.350Z,5.53
2019-03-06T20:15:08.880Z,5.60
2019-03-06T20:17:49.877Z,5.13
2019-03-06T20:20:30.508Z,4.90
2019-03-06T20:23:11.366Z,4.80
2019-03-06T20:25:54.916Z,4.27
2019-03-06T20:28:35.727Z,4.50
2019-03-06T20:31:17.159Z,4.50
2019-03-06T20:33:58.084Z,3.87
2019-03-06T20:36:39.272Z,4.30
2019-03-06T20:39:20.207Z,4.43
2019-03-06T20:42:01.466Z,3.53
2019-03-06T20:44:42.161Z,3.60
2019-03-06T20:47:22.677Z,4.43
2019-03-06T20:50:03.402Z,3.90
2019-03-06T20:52:44.296Z,4.00
2019-03-06T20:55:25.261Z,3.83
2019-03-06T20:58:06.475Z,4.53
2019-03-06T21:00:47.357Z,4.30
2019-03-06T21:03:27.824Z,3.57
2019-03-06T21:06:08.133Z,3.53
2019-03-06T21:08:48.727Z,4.27
2019-03-06T21:11:29.449Z,4.10
2019-03-06T21:14:10.266Z,4.30
2019-03-06T21:16:51.385Z,3.97
2019-03-06T21:19:31.999Z,3.60
2019-03-06T21:22:13.049Z,3.77
2019-03-06T21:24:54.176Z,3.93
2019-03-06T21:27:34.785Z,3.83
2019-03-06T21:30:15.888Z,3.60
2019-03-06T21:32:57.116Z,3.70
2019-03-06T21:35:37.911Z,3.10
2019-03-06T21:38:18.412Z,3.77
2019-03-06T21:40:57.213Z,3.50
2019-03-06T21:43:44.961Z,3.70
2019-03-06T21:46:33.089Z,3.60
2019-03-06T21:49:20.835Z,4.03
2019-03-06T21:52:08.668Z,3.67
2019-03-06T21:54:56.505Z,4.10
2019-03-06T21:57:44.330Z,6.87
2019-03-06T22:00:32.162Z,5.37
2019-03-06T22:03:20.028Z,4.17
2019-03-06T22:06:08.138Z,2.80
2019-03-06T22:08:55.956Z,3.33
2019-03-06T22:11:43.704Z,3.93
2019-03-06T22:14:31.471Z,6.53
2019-03-06T22:17:19.307Z,3.20
2019-03-06T22:23:21.588Z,2.70
2019-03-06T22:26:09.325Z,3.80
2019-03-06T22:28:57.164Z,2.70
2019-03-06T22:31:37.565Z,2.90
2019-03-06T22:34:18.560Z,3.20
2019-03-06T22:36:59.278Z,4.73
2019-03-06T22:39:40.283Z,3.80
2019-03-06T22:42:20.697Z,5.50
2019-03-06T22:45:02.055Z,3.10
2019-03-06T22:47:43.196Z,3.10
2019-03-06T22:50:24.316Z,3.07
2019-03-06T22:53:05.226Z,3.10
2019-03-06T22:55:45.568Z,3.23
2019-03-06T22:58:26.552Z,3.73
2019-03-06T23:01:07.539Z,3.40
2019-03-06T23:03:48.605Z,3.07
2019-03-06T23:06:29.315Z,3.07
2019-03-06T23:09:10.523Z,3.90
2019-03-06T23:11:50.796Z,3.57
2019-03-06T23:14:31.431Z,2.87
2019-03-06T23:16:59.842Z,2.93
2019-03-06T23:19:47.609Z,2.70
2019-03-06T23:22:35.429Z,3.17
2019-03-06T23:25:23.176Z,3.10
2019-03-06T23:28:10.940Z,3.40
2019-03-06T23:30:51.190Z,3.10
2019-03-06T23:33:31.884Z,3.10
2019-03-06T23:36:12.440Z,2.80
2019-03-06T23:38:53.430Z,2.83
2019-03-06T23:41:33.933Z,2.83
2019-03-06T23:44:14.611Z,3.10
2019-03-06T23:46:55.251Z,3.00
2019-03-06T23:49:37.056Z,2.93
2019-03-06T23:52:19.141Z,3.10
2019-03-06T23:55:00.280Z,3.17
2019-03-06T23:57:41.194Z,3.47
